• Join FlightAware (Why Join?)
  • Login
  • US Flag 
04:29PM EST


 

Airport Tracker/Info


-or-


 

Live Flight TrackerFlight Track Log ✈ N711FG ✈ 05-May-2013 ✈ KSDF - KBNA

Flight Track Log - Related Links

Times and Time Zones

All times are in EDT time to prevent confusion due to time zone crossing. See the N711FG flight status page for this flight to view local times or setup timezone preferences in your user account.

Time Position Orientation Groundspeed Altitude Reporting Facility
EDT Latitude Longitude Course Direction KTS MPH feet Rate Location/Type
08:46AM 38.0753 -85.7789 218° Southwest 318 366 4,900  Level Indianapolis Center
08:47AM 38.0403 -85.8697 244° Southwest 283 326 8,000 2,780 Climbing Indianapolis Center
08:48AM 38.0019 -85.9719 245° Southwest 314 361 10,600 2,016 Climbing Indianapolis Center
08:49AM 37.9556 -86.0792 241° Southwest 339 390 12,100 683 Climbing Indianapolis Center
08:50AM 37.8778 -86.1533 217° Southwest 358 412 12,000 -49 Descending Indianapolis Center
08:51AM 37.8563 -86.2387 189° South  Level FlightAware Approximate
08:51AM 37.7811 -86.1725 189° South 348 400 12,000  Level Indianapolis Center
08:52AM 37.7836 -86.2664 218° Southwest  Level FlightAware Approximate
08:52AM 37.6742 -86.2056 194° South 347 399 12,000  Level Indianapolis Center
08:54AM 37.5783 -86.2372 195° South 352 405 12,000 -49 Level Indianapolis Center
08:55AM 37.4808 -86.2672 194° South 356 410 11,900 -49 Descending Indianapolis Center
08:56AM 37.3839 -86.2958 193° South 354 407 11,900  Level Indianapolis Center
08:57AM 37.2853 -86.3275 194° South 360 414 11,900 -146 Level Indianapolis Center
08:58AM 37.1889 -86.3558 193° South 353 406 11,600 -435 Descending Indianapolis Center
08:59AM 37.0933 -86.3858 194° South 349 402 11,000 -293 Descending Memphis Center
09:00AM 37.0047 -86.4136 194° South 349 402 11,000 -250 Level Memphis Center
09:01AM 36.9097 -86.4442 194° South 349 402 10,500 -750 Descending Memphis Center
09:02AM 36.8231 -86.4692 193° South 338 389 9,500 -950 Descending Memphis Center
09:03AM 36.7322 -86.4994 195° South 320 368 8,600 -1,300 Descending Memphis Center
09:04AM 36.6578 -86.5186 192° South 291 335 6,900 -1,600 Descending Memphis Center
09:05AM 36.5814 -86.5378 191° South 285 328 5,400 -900 Descending Memphis Center
09:06AM 36.5106 -86.5411 182° South 268 308 5,100 -150 Descending Memphis Center
09:07AM 36.4378 -86.5444 182° South 268 308 5,100  Level Memphis Center
09:08AM 36.3628 -86.5481 182° South 268 308 5,100  Level Memphis Center
09:09AM 36.2878 -86.5489 181° South 268 308 5,100  Level Memphis Center
09:10AM 36.2211 -86.5494 180° South 273 314 5,100  Level Memphis Center
09:11AM 36.1464 -86.5606 187° South 273 314 5,100 -400 Level Memphis Center
09:12AM 36.0742 -86.5872 197° South 273 314 4,300 -1,050 Descending Memphis Center
09:13AM 36.0039 -86.6133 197° South 278 320 3,000 -900 Descending Memphis Center
09:14AM 35.9319 -86.6425 198° South 263 303 2,500 -200 Descending Memphis Center
09:15AM 35.9319 -86.7117 270° West 185 213 2,600 -207 Climbing Memphis Center
09:17AM 36.0500 -86.7167 358° North 151 174 1,800 -473 Descending Nashville TRACON
09:18AM 36.0833 -86.7000 22° Northeast 141 162 1,000 -800 Descending Nashville TRACON
09:20AM 36.1167 -86.6667 14° North  Level FlightAware Approximate
09:27AM 36.1245 -86.6782 14° North  Level Estimated
09:28AM 36.1245 -86.6782 14° North  Level Estimated
09:29AM 36.1245 -86.6782 14° North  Level Estimated
09:30AM 36.1245 -86.6782 14° North  Level Estimated
09:31AM 36.1245 -86.6782 14° North  Level Estimated
09:32AM 36.1245 -86.6782 14° North  Level Estimated